Time;durP1;ratioP1;P1;durP2;ratioP2;P2;SDS_P1;SDS_P2;PMS_P1;PMS_P2;Temp;Humidity;BMP_temperature;BMP_pressure;BME280_temperature;BME280_humidity;BME280_pressure;Samples;Min_cycle;Max_cycle;Signal;HPM_P1;HPM_P2
2023/04/03 00:01:23;;;;;;;1.30;0.70;;;19.40;57.30;;;;;;5034819;28;20112;-61
2023/04/03 00:03:48;;;;;;;1.92;0.90;;;19.50;57.50;;;;;;5036811;28;20028;-61
2023/04/03 00:06:14;;;;;;;2.30;1.13;;;19.40;57.40;;;;;;5032467;28;20478;-61
2023/04/03 00:08:40;;;;;;;1.80;0.85;;;19.40;57.40;;;;;;5034127;28;20360;-59
2023/04/03 00:11:06;;;;;;;1.73;1.08;;;19.40;57.50;;;;;;5037908;28;20083;-61
2023/04/03 00:13:32;;;;;;;2.47;0.95;;;19.30;57.40;;;;;;5018359;28;20034;-61
2023/04/03 00:15:58;;;;;;;2.75;0.80;;;19.30;57.50;;;;;;5016476;28;20455;-56
2023/04/03 00:18:24;;;;;;;2.25;1.00;;;19.30;57.60;;;;;;5023709;28;20120;-62
2023/04/03 00:20:50;;;;;;;3.35;0.80;;;19.30;57.60;;;;;;5038982;28;20049;-62
2023/04/03 00:23:15;;;;;;;1.67;0.90;;;19.30;57.60;;;;;;5033261;28;20078;-60
2023/04/03 00:25:41;;;;;;;1.60;0.80;;;19.20;57.60;;;;;;5039660;28;20037;-61
2023/04/03 00:28:06;;;;;;;3.83;1.17;;;19.20;57.60;;;;;;5035964;28;20025;-61
2023/04/03 00:30:32;;;;;;;1.85;0.90;;;19.20;57.70;;;;;;5035560;28;20037;-62
2023/04/03 00:32:58;;;;;;;1.33;0.70;;;19.20;57.70;;;;;;5036750;28;20064;-60
2023/04/03 00:35:24;;;;;;;3.10;1.05;;;19.20;57.80;;;;;;5018724;28;20493;-65
2023/04/03 00:37:54;;;;;;;2.53;0.90;;;19.20;57.80;;;;;;5016362;28;20145;-61
2023/04/03 00:40:22;;;;;;;1.83;1.08;;;19.10;57.70;;;;;;5031790;28;20116;-55
2023/04/03 00:42:51;;;;;;;1.60;0.90;;;19.20;57.80;;;;;;5034205;28;20055;-62
2023/04/03 00:45:26;;;;;;;1.75;1.13;;;19.10;57.80;;;;;;5035261;28;20045;-62
2023/04/03 00:47:52;;;;;;;2.25;0.90;;;19.10;57.90;;;;;;5028825;28;20080;-61
2023/04/03 00:50:18;;;;;;;1.70;0.88;;;19.10;57.80;;;;;;5030320;28;20508;-55
2023/04/03 00:52:46;;;;;;;2.67;0.80;;;19.10;57.90;;;;;;5036198;28;20357;-59
2023/04/03 00:55:12;;;;;;;1.20;0.80;;;19.10;57.90;;;;;;5037804;28;20029;-58
2023/04/03 00:57:38;;;;;;;3.45;0.75;;;19.00;57.90;;;;;;5033962;28;20028;-57
2023/04/03 01:00:12;;;;;;;2.03;0.75;;;19.00;58.00;;;;;;5033019;28;20331;-59
2023/04/03 01:02:37;;;;;;;2.00;1.10;;;19.00;57.90;;;;;;5027435;28;20124;-62
2023/04/03 01:05:04;;;;;;;1.63;1.05;;;19.00;58.00;;;;;;5031170;28;20111;-57
2023/04/03 01:07:30;;;;;;;1.30;0.70;;;19.00;58.00;;;;;;5032060;28;20793;-57
2023/04/03 01:09:58;;;;;;;1.88;0.90;;;19.00;58.10;;;;;;5036009;28;20723;-60
2023/04/03 01:12:27;;;;;;;2.28;0.90;;;19.00;58.10;;;;;;5018887;28;20034;-62
2023/04/03 01:14:59;;;;;;;2.05;0.60;;;18.90;58.00;;;;;;5018192;28;20509;-61
2023/04/03 01:17:46;;;;;;;1.27;0.80;;;19.00;58.10;;;;;;5019195;28;20044;-62
2023/04/03 01:20:39;;;;;;;1.65;0.60;;;18.90;58.10;;;;;;5035769;28;20035;-61
2023/04/03 01:23:10;;;;;;;1.15;0.70;;;18.90;58.10;;;;;;5036406;28;20541;-57
2023/04/03 01:25:43;;;;;;;1.48;0.63;;;18.90;58.10;;;;;;5037246;28;20037;-62
2023/04/03 01:28:12;;;;;;;2.47;0.80;;;18.90;58.10;;;;;;5036103;28;20087;-61
2023/04/03 01:30:45;;;;;;;1.23;0.80;;;18.90;58.10;;;;;;5021061;28;20438;-62
2023/04/03 01:33:10;;;;;;;0.90;0.60;;;18.90;58.10;;;;;;5020858;28;20483;-62
2023/04/03 01:35:37;;;;;;;2.75;0.50;;;18.90;58.20;;;;;;5012911;28;20117;-62
2023/04/03 01:38:02;;;;;;;1.35;0.70;;;18.90;58.20;;;;;;5015914;28;20113;-58
2023/04/03 01:40:27;;;;;;;4.15;0.70;;;18.90;58.20;;;;;;5036270;28;20104;-58
2023/04/03 01:42:53;;;;;;;2.05;0.95;;;18.80;58.10;;;;;;5036855;28;20459;-61
2023/04/03 01:45:18;;;;;;;0.75;0.63;;;18.90;58.20;;;;;;5035369;28;20112;-61
2023/04/03 01:47:44;;;;;;;1.58;0.70;;;18.90;58.20;;;;;;5037142;28;20258;-61
2023/04/03 01:50:09;;;;;;;1.45;0.75;;;18.90;58.20;;;;;;5036480;28;20032;-62
2023/04/03 01:52:35;;;;;;;1.95;0.80;;;18.90;58.20;;;;;;5037645;28;20033;-61
2023/04/03 01:55:00;;;;;;;1.70;0.47;;;18.80;58.20;;;;;;5033471;28;20052;-60
2023/04/03 01:57:26;;;;;;;1.58;1.02;;;18.80;58.10;;;;;;5034533;28;20056;-54
2023/04/03 01:59:51;;;;;;;3.28;0.88;;;18.80;58.20;;;;;;5039286;28;20032;-60
2023/04/03 02:02:17;;;;;;;1.95;0.88;;;18.80;58.20;;;;;;5034367;28;20060;-61
2023/04/03 02:04:42;;;;;;;1.33;0.70;;;18.80;58.20;;;;;;5030788;28;20038;-53
2023/04/03 02:07:08;;;;;;;1.60;0.70;;;18.80;58.20;;;;;;5031908;28;20025;-61
2023/04/03 02:09:33;;;;;;;2.47;0.70;;;18.80;58.20;;;;;;5028442;28;20026;-61
2023/04/03 02:11:59;;;;;;;2.45;0.90;;;18.80;58.30;;;;;;5015566;28;20096;-61
2023/04/03 02:14:27;;;;;;;1.45;0.70;;;18.70;58.20;;;;;;5030268;28;20125;-61
2023/04/03 02:16:52;;;;;;;1.98;0.65;;;18.70;58.20;;;;;;5036164;28;20119;-61
2023/04/03 02:19:18;;;;;;;1.38;0.80;;;18.80;58.20;;;;;;5030195;28;20431;-62
2023/04/03 02:21:43;;;;;;;1.70;0.75;;;18.80;58.20;;;;;;5037314;28;20523;-61
2023/04/03 02:24:09;;;;;;;1.02;0.57;;;18.80;58.20;;;;;;5030529;28;20034;-62
2023/04/03 02:26:34;;;;;;;1.30;0.60;;;18.80;58.20;;;;;;5033146;28;20029;-61
2023/04/03 02:29:00;;;;;;;1.73;0.70;;;18.80;58.30;;;;;;5034596;28;20108;-61
2023/04/03 02:31:25;;;;;;;0.90;0.60;;;18.70;58.20;;;;;;5017794;28;20037;-61
2023/04/03 02:33:51;;;;;;;1.05;0.70;;;18.80;58.20;;;;;;5031010;28;20078;-61
2023/04/03 02:36:16;;;;;;;2.50;0.70;;;18.70;58.20;;;;;;5035138;28;20036;-61
2023/04/03 02:38:42;;;;;;;2.00;0.93;;;18.70;58.20;;;;;;5025923;28;20381;-61
2023/04/03 02:41:10;;;;;;;1.00;0.60;;;18.70;58.10;;;;;;5032942;28;20029;-58
2023/04/03 02:43:36;;;;;;;1.75;1.10;;;18.70;58.20;;;;;;5036362;28;20036;-61
2023/04/03 02:46:01;;;;;;;3.03;0.80;;;18.70;58.20;;;;;;5035574;28;20072;-61
2023/04/03 02:48:27;;;;;;;1.40;0.60;;;18.70;58.20;;;;;;5035436;28;20052;-61
2023/04/03 02:50:53;;;;;;;1.30;0.60;;;18.70;58.20;;;;;;5032813;28;20425;-61
2023/04/03 02:53:19;;;;;;;0.70;0.50;;;18.70;58.20;;;;;;5032156;28;20041;-61
2023/04/03 02:55:45;;;;;;;2.95;0.60;;;18.70;58.10;;;;;;5030695;28;20714;-61
2023/04/03 02:58:11;;;;;;;2.15;0.50;;;18.70;58.20;;;;;;5032969;28;20625;-60
2023/04/03 03:00:36;;;;;;;2.17;0.50;;;18.70;58.10;;;;;;5020404;28;20033;-61
2023/04/03 03:03:02;;;;;;;1.00;0.80;;;18.70;58.10;;;;;;5009709;28;20508;-62
2023/04/03 03:05:28;;;;;;;1.40;0.70;;;18.80;58.00;;;;;;5011102;28;20041;-62
2023/04/03 03:07:54;;;;;;;0.95;0.65;;;19.00;57.60;;;;;;5011605;28;20033;-61
2023/04/03 03:10:19;;;;;;;2.72;0.70;;;19.10;57.30;;;;;;5026999;28;20041;-60
2023/04/03 03:12:45;;;;;;;0.82;0.63;;;19.20;56.80;;;;;;5038065;28;20099;-60
2023/04/03 03:15:11;;;;;;;1.67;0.73;;;19.30;56.60;;;;;;5036062;28;20082;-60
2023/04/03 03:17:37;;;;;;;1.23;0.60;;;19.50;56.30;;;;;;5039854;28;20116;-60
2023/04/03 03:20:04;;;;;;;1.35;0.80;;;19.60;56.00;;;;;;5030451;28;20104;-60
2023/04/03 03:22:29;;;;;;;1.92;0.68;;;19.70;55.80;;;;;;5035348;28;20244;-60
2023/04/03 03:24:55;;;;;;;2.45;0.90;;;19.80;55.60;;;;;;5034517;28;20040;-60
2023/04/03 03:27:21;;;;;;;2.33;1.10;;;19.90;55.60;;;;;;5033406;28;20025;-60
2023/04/03 03:29:46;;;;;;;1.95;1.00;;;20.00;55.10;;;;;;5023685;28;20025;-60
2023/04/03 03:32:12;;;;;;;1.27;0.82;;;20.10;55.00;;;;;;5033659;28;20067;-60
2023/04/03 03:34:37;;;;;;;1.40;0.70;;;20.20;54.90;;;;;;5036560;28;20475;-61
2023/04/03 03:37:03;;;;;;;2.10;0.82;;;20.20;54.90;;;;;;5018277;28;20040;-54
2023/04/03 03:39:28;;;;;;;1.70;0.70;;;20.30;54.80;;;;;;5028653;28;20037;-60
2023/04/03 03:41:54;;;;;;;1.55;0.68;;;20.30;54.70;;;;;;5040183;28;20045;-60
2023/04/03 03:44:20;;;;;;;4.57;1.10;;;20.30;54.60;;;;;;5041149;28;20430;-60
2023/04/03 03:46:46;;;;;;;1.42;0.80;;;20.30;54.70;;;;;;5036455;28;20091;-59
2023/04/03 03:49:12;;;;;;;1.20;0.80;;;20.20;54.80;;;;;;5036988;28;20381;-59
2023/04/03 03:51:39;;;;;;;1.40;0.70;;;20.20;54.90;;;;;;5035919;28;20045;-60
2023/04/03 03:54:04;;;;;;;1.52;0.82;;;20.20;55.10;;;;;;5031969;28;20068;-60
2023/04/03 03:56:30;;;;;;;2.25;0.90;;;20.10;55.10;;;;;;5034804;28;20048;-60
2023/04/03 03:58:56;;;;;;;1.20;0.63;;;20.10;55.30;;;;;;5028543;28;20128;-58
2023/04/03 04:01:22;;;;;;;1.80;1.02;;;20.00;55.30;;;;;;5017309;28;20560;-60
2023/04/03 04:03:48;;;;;;;1.98;0.85;;;20.00;55.40;;;;;;5014715;28;20033;-61
2023/04/03 04:06:14;;;;;;;1.98;1.10;;;20.00;55.50;;;;;;5009754;28;20061;-56
2023/04/03 04:08:40;;;;;;;1.65;0.88;;;19.90;55.60;;;;;;5016295;28;20044;-61
2023/04/03 04:11:06;;;;;;;1.45;0.60;;;19.90;55.60;;;;;;5020315;28;20033;-60
2023/04/03 04:13:31;;;;;;;1.35;0.90;;;19.80;55.60;;;;;;5018606;28;20497;-57
2023/04/03 04:15:57;;;;;;;1.73;0.70;;;19.80;55.70;;;;;;5015390;28;20650;-53
2023/04/03 04:18:23;;;;;;;1.48;1.02;;;19.80;55.80;;;;;;5015394;28;20042;-60
2023/04/03 04:20:49;;;;;;;1.33;0.63;;;19.70;55.80;;;;;;5016010;28;20025;-60
2023/04/03 04:23:15;;;;;;;1.10;0.70;;;19.70;55.80;;;;;;5014138;28;20447;-58
2023/04/03 04:25:40;;;;;;;1.95;0.90;;;19.60;55.80;;;;;;5009929;28;20038;-60
2023/04/03 04:28:06;;;;;;;1.88;0.93;;;19.60;55.80;;;;;;5013702;28;20632;-60
2023/04/03 04:30:31;;;;;;;2.08;0.98;;;19.60;56.00;;;;;;5012091;28;20078;-60
2023/04/03 04:32:57;;;;;;;3.30;1.00;;;19.60;56.60;;;;;;5014431;28;20065;-56
2023/04/03 04:35:22;;;;;;;2.15;0.82;;;19.60;56.00;;;;;;5012745;28;20071;-59
2023/04/03 04:37:48;;;;;;;1.60;0.77;;;19.50;56.00;;;;;;5015843;28;20083;-61
2023/04/03 04:40:13;;;;;;;2.95;0.88;;;19.50;55.90;;;;;;5020759;28;20081;-61
2023/04/03 04:42:39;;;;;;;1.25;0.77;;;19.40;56.00;;;;;;5017373;28;20041;-58
2023/04/03 04:45:05;;;;;;;2.35;0.60;;;19.40;56.00;;;;;;5014640;28;20104;-60
2023/04/03 04:47:30;;;;;;;1.48;1.00;;;19.40;55.90;;;;;;5014364;28;20591;-60
2023/04/03 04:49:56;;;;;;;1.75;0.98;;;19.40;56.00;;;;;;5016188;28;20030;-59
2023/04/03 04:52:21;;;;;;;1.25;0.70;;;19.40;56.00;;;;;;5017172;28;20167;-60
2023/04/03 04:54:47;;;;;;;2.50;1.20;;;19.40;56.10;;;;;;5009971;28;20030;-60
2023/04/03 04:57:12;;;;;;;1.88;1.00;;;19.30;56.00;;;;;;5013970;28;20022;-56
2023/04/03 04:59:38;;;;;;;2.05;0.90;;;19.30;56.10;;;;;;5015312;28;20408;-60
2023/04/03 05:02:03;;;;;;;1.40;0.98;;;19.30;56.10;;;;;;5012940;28;20548;-61
2023/04/03 05:04:29;;;;;;;3.00;1.00;;;19.30;56.20;;;;;;5015041;28;20053;-61
2023/04/03 05:06:54;;;;;;;2.00;0.75;;;19.30;56.20;;;;;;5017390;28;20348;-56
2023/04/03 05:09:20;;;;;;;2.35;1.05;;;19.20;56.30;;;;;;5019340;28;20034;-58
2023/04/03 05:11:46;;;;;;;4.13;1.40;;;19.20;56.30;;;;;;5015962;28;20184;-53
2023/04/03 05:14:12;;;;;;;3.25;0.93;;;19.10;56.40;;;;;;5013247;28;20038;-60
2023/04/03 05:16:37;;;;;;;3.65;0.80;;;19.10;56.50;;;;;;5011970;28;20408;-59
2023/04/03 05:19:03;;;;;;;1.83;0.90;;;19.10;56.50;;;;;;5016591;28;20033;-54
2023/04/03 05:21:31;;;;;;;4.20;1.05;;;19.10;56.60;;;;;;5017206;28;20030;-61
2023/04/03 05:23:58;;;;;;;1.02;0.65;;;19.00;56.50;;;;;;5010388;28;20034;-51
2023/04/03 05:26:25;;;;;;;4.03;0.98;;;19.00;56.60;;;;;;5014408;28;20459;-57
2023/04/03 05:28:50;;;;;;;4.18;1.38;;;18.90;56.60;;;;;;5011086;28;20540;-60
2023/04/03 05:31:16;;;;;;;6.00;1.20;;;19.00;57.10;;;;;;5012551;28;20057;-59
2023/04/03 05:33:42;;;;;;;3.65;1.10;;;19.00;57.30;;;;;;5014769;28;20044;-56
2023/04/03 05:36:08;;;;;;;4.43;1.65;;;18.90;57.20;;;;;;5016021;28;20311;-60
2023/04/03 05:38:33;;;;;;;3.97;1.83;;;18.90;57.20;;;;;;5018409;28;20124;-57
2023/04/03 05:40:59;;;;;;;5.35;1.05;;;18.80;57.30;;;;;;5015674;28;20033;-60
2023/04/03 05:43:24;;;;;;;7.45;1.27;;;18.80;57.30;;;;;;5012431;28;20538;-60
2023/04/03 05:45:51;;;;;;;7.30;1.23;;;18.80;57.30;;;;;;5012460;28;20121;-62
2023/04/03 05:48:16;;;;;;;8.10;1.92;;;18.70;57.20;;;;;;5015663;28;20037;-61
2023/04/03 05:50:42;;;;;;;6.38;2.50;;;18.80;57.30;;;;;;5009595;28;20123;-62
2023/04/03 05:53:17;;;;;;;3.53;2.33;;;18.80;57.30;;;;;;5008524;28;20237;-52
2023/04/03 05:55:43;;;;;;;7.20;2.13;;;18.70;57.30;;;;;;5010199;28;20072;-56
2023/04/03 05:58:08;;;;;;;7.53;2.08;;;18.70;57.30;;;;;;5028910;28;20494;-54
2023/04/03 06:00:34;;;;;;;7.13;2.20;;;18.70;57.30;;;;;;5040447;28;20045;-61
2023/04/03 06:02:59;;;;;;;6.60;2.13;;;18.80;57.40;;;;;;5026214;28;20025;-57
2023/04/03 06:05:25;;;;;;;4.57;2.10;;;18.90;57.20;;;;;;5028170;28;20064;-58
2023/04/03 06:07:50;;;;;;;7.15;2.35;;;18.90;57.00;;;;;;5015731;28;20034;-62
2023/04/03 06:10:16;;;;;;;7.85;2.83;;;19.10;56.60;;;;;;5015498;28;20045;-57
2023/04/03 06:12:41;;;;;;;7.20;2.50;;;19.20;56.10;;;;;;5030387;28;20022;-58
2023/04/03 06:15:09;;;;;;;4.93;2.20;;;19.30;55.60;;;;;;5035530;28;20430;-63
2023/04/03 06:17:37;;;;;;;6.00;2.05;;;19.50;55.10;;;;;;5034855;28;20086;-57
2023/04/03 06:20:03;;;;;;;5.05;2.58;;;19.60;54.90;;;;;;5035289;28;20029;-54
2023/04/03 06:22:29;;;;;;;4.00;2.28;;;19.70;54.50;;;;;;5031072;28;20099;-60
2023/04/03 06:24:55;;;;;;;5.35;2.65;;;19.80;54.10;;;;;;5032218;28;20076;-61
2023/04/03 06:27:21;;;;;;;6.30;2.25;;;19.90;53.80;;;;;;5033511;28;20538;-61
2023/04/03 06:29:47;;;;;;;6.63;2.53;;;20.00;53.60;;;;;;5034863;28;20043;-61
2023/04/03 06:32:14;;;;;;;6.57;2.65;;;20.10;53.40;;;;;;5037908;28;20036;-62
2023/04/03 06:34:41;;;;;;;7.20;4.28;;;20.10;53.70;;;;;;5037235;28;20469;-57
2023/04/03 06:37:10;;;;;;;11.18;5.47;;;20.20;53.70;;;;;;5037368;28;20079;-56
2023/04/03 06:39:35;;;;;;;11.55;4.35;;;20.20;53.60;;;;;;5034579;28;20041;-61
2023/04/03 06:42:01;;;;;;;10.40;5.15;;;20.20;53.50;;;;;;5033378;28;20242;-61
2023/04/03 06:44:26;;;;;;;7.80;4.90;;;20.20;53.60;;;;;;5033583;28;20409;-60
2023/04/03 06:46:54;;;;;;;10.27;4.82;;;20.20;53.60;;;;;;5033148;28;20434;-61
2023/04/03 06:49:19;;;;;;;8.50;4.13;;;20.20;53.80;;;;;;5036585;28;20103;-61
2023/04/03 06:51:45;;;;;;;14.93;4.82;;;20.10;53.80;;;;;;5031409;28;20507;-61
2023/04/03 06:54:10;;;;;;;9.90;4.75;;;20.10;53.70;;;;;;5035478;28;20509;-61
2023/04/03 06:56:36;;;;;;;9.20;4.55;;;20.00;53.90;;;;;;5030092;28;20040;-61
2023/04/03 06:59:02;;;;;;;10.50;3.90;;;20.00;54.00;;;;;;5026182;28;20042;-61
2023/04/03 07:01:28;;;;;;;6.57;3.78;;;20.00;53.90;;;;;;5039570;28;20792;-61
2023/04/03 07:03:55;;;;;;;12.18;4.18;;;19.90;54.20;;;;;;5034924;28;20425;-61
2023/04/03 07:06:21;;;;;;;8.23;3.67;;;19.90;54.50;;;;;;5025244;28;20037;-60
2023/04/03 07:08:48;;;;;;;10.35;4.18;;;19.90;55.00;;;;;;5036204;28;20041;-61
2023/04/03 07:11:14;;;;;;;15.90;6.22;;;20.00;55.10;;;;;;5040368;28;20293;-61
2023/04/03 07:13:40;;;;;;;13.40;5.43;;;20.00;55.20;;;;;;5035924;28;20124;-59
2023/04/03 07:16:06;;;;;;;12.57;6.18;;;20.00;55.20;;;;;;5039353;28;20040;-61
2023/04/03 07:18:33;;;;;;;11.95;5.35;;;20.00;55.50;;;;;;5034909;28;20094;-61
2023/04/03 07:20:58;;;;;;;12.25;6.22;;;19.90;55.60;;;;;;5035252;28;20033;-53
2023/04/03 07:23:24;;;;;;;18.33;6.20;;;19.90;55.70;;;;;;5035095;28;20041;-61
2023/04/03 07:25:51;;;;;;;15.88;5.78;;;19.80;55.70;;;;;;5033823;28;20029;-60
2023/04/03 07:28:18;;;;;;;11.38;6.25;;;19.80;55.80;;;;;;5026400;28;20099;-61
2023/04/03 07:30:45;;;;;;;15.68;6.15;;;19.80;55.80;;;;;;5036324;28;20449;-61
2023/04/03 07:33:11;;;;;;;11.57;5.28;;;19.80;55.80;;;;;;5033525;28;20036;-61
2023/04/03 07:35:37;;;;;;;13.23;6.47;;;19.80;55.90;;;;;;5024810;28;20478;-62
2023/04/03 07:38:03;;;;;;;15.45;5.53;;;19.70;55.90;;;;;;5019841;28;20029;-61
2023/04/03 07:40:28;;;;;;;10.95;4.68;;;19.70;55.80;;;;;;5016686;28;21508;-61
2023/04/03 07:42:56;;;;;;;12.27;6.10;;;19.70;55.80;;;;;;5016598;28;20104;-60
2023/04/03 07:45:22;;;;;;;13.50;4.82;;;19.60;55.80;;;;;;5013877;28;20563;-62
2023/04/03 07:47:48;;;;;;;14.88;5.70;;;19.60;55.80;;;;;;5014762;28;20045;-61
2023/04/03 07:50:14;;;;;;;11.68;5.10;;;19.60;55.80;;;;;;5037795;28;20059;-57
2023/04/03 07:52:40;;;;;;;10.75;4.05;;;19.60;55.80;;;;;;5030575;28;20037;-61
2023/04/03 07:55:06;;;;;;;10.25;4.78;;;19.50;55.60;;;;;;5032344;28;20396;-62
2023/04/03 07:57:31;;;;;;;12.60;4.72;;;19.50;55.60;;;;;;5037571;28;20098;-62
2023/04/03 07:59:57;;;;;;;10.77;4.30;;;19.50;55.70;;;;;;5038969;28;20030;-61
2023/04/03 08:02:22;;;;;;;11.75;4.40;;;19.40;55.60;;;;;;5033287;28;20520;-61
2023/04/03 08:04:48;;;;;;;8.95;4.55;;;19.40;55.60;;;;;;5042916;28;20036;-61
2023/04/03 08:07:13;;;;;;;12.35;4.25;;;19.40;55.70;;;;;;5027451;28;20078;-61
2023/04/03 08:09:39;;;;;;;8.55;4.25;;;19.40;55.60;;;;;;5034944;28;20040;-61
2023/04/03 08:12:04;;;;;;;8.30;4.15;;;19.40;55.60;;;;;;5035394;28;20033;-62
2023/04/03 08:14:34;;;;;;;8.13;4.43;;;19.30;55.50;;;;;;5034165;28;20116;-60
2023/04/03 08:17:00;;;;;;;8.95;4.20;;;19.30;55.50;;;;;;5034815;28;20420;-54
2023/04/03 08:19:26;;;;;;;9.45;3.78;;;19.30;55.60;;;;;;5030462;28;20045;-61
2023/04/03 08:21:52;;;;;;;12.52;4.18;;;19.30;55.70;;;;;;5035213;28;20033;-61
2023/04/03 08:24:17;;;;;;;6.03;3.75;;;19.20;55.70;;;;;;5032671;28;20060;-61
2023/04/03 08:26:43;;;;;;;10.18;3.65;;;19.20;55.60;;;;;;5032402;28;20029;-62
2023/04/03 08:29:08;;;;;;;8.15;3.97;;;19.20;55.70;;;;;;5037333;28;20025;-55
2023/04/03 08:31:34;;;;;;;6.40;3.55;;;19.20;55.70;;;;;;5016443;28;20437;-62
2023/04/03 08:33:59;;;;;;;6.10;3.13;;;19.10;55.70;;;;;;5016354;28;20556;-64
2023/04/03 08:36:27;;;;;;;6.00;2.90;;;19.10;55.70;;;;;;5019160;28;20041;-61
2023/04/03 08:38:54;;;;;;;10.00;4.70;;;19.10;55.70;;;;;;5017581;28;20038;-63
2023/04/03 08:41:33;;;;;;;5.72;2.92;;;19.10;55.70;;;;;;5015439;28;20022;-61
2023/04/03 08:44:17;;;;;;;5.70;3.45;;;19.00;55.70;;;;;;5032020;28;20083;-61
2023/04/03 08:47:20;;;;;;;7.00;3.33;;;19.00;55.70;;;;;;5031224;28;20527;-61
2023/04/03 08:49:51;;;;;;;8.63;3.40;;;19.00;55.70;;;;;;5029000;28;20048;-60
2023/04/03 08:52:20;;;;;;;6.28;2.60;;;19.00;55.90;;;;;;5031774;28;20442;-61
2023/04/03 08:54:52;;;;;;;9.02;3.28;;;19.00;55.80;;;;;;5032457;28;20039;-62
2023/04/03 08:57:26;;;;;;;6.35;3.63;;;18.90;55.80;;;;;;5037253;28;20515;-61
2023/04/03 08:59:51;;;;;;;5.63;2.83;;;18.90;55.80;;;;;;5018109;28;20068;-58
2023/04/03 09:02:28;;;;;;;3.83;2.50;;;18.90;55.80;;;;;;5039166;28;20515;-61
2023/04/03 09:04:54;;;;;;;5.70;2.92;;;18.90;55.90;;;;;;5037245;28;20343;-60
2023/04/03 09:07:38;;;;;;;4.70;2.33;;;18.90;55.90;;;;;;5035048;28;20067;-61
2023/04/03 09:10:05;;;;;;;3.75;2.67;;;18.90;55.90;;;;;;5028246;28;20516;-62
2023/04/03 09:12:39;;;;;;;4.93;2.60;;;18.90;55.90;;;;;;5033743;28;20041;-61
2023/04/03 09:15:17;;;;;;;4.25;2.38;;;18.90;55.90;;;;;;5035148;28;20078;-57
2023/04/03 09:17:56;;;;;;;5.65;2.65;;;19.00;56.00;;;;;;5034545;28;20389;-62
2023/04/03 09:20:38;;;;;;;6.28;2.72;;;19.10;55.90;;;;;;5030655;28;20181;-61
2023/04/03 09:23:19;;;;;;;4.68;2.50;;;19.10;55.70;;;;;;5031569;28;20025;-62
2023/04/03 09:25:45;;;;;;;3.80;2.30;;;19.30;55.20;;;;;;5035857;28;20407;-61
2023/04/03 09:28:11;;;;;;;4.72;2.42;;;19.40;54.90;;;;;;5031486;28;20044;-62
2023/04/03 09:30:37;;;;;;;5.32;2.70;;;19.50;54.30;;;;;;5010464;28;20141;-56
2023/04/03 09:33:03;;;;;;;4.35;2.63;;;19.50;54.10;;;;;;5035786;28;20025;-61
2023/04/03 09:35:32;;;;;;;4.38;1.95;;;19.60;53.60;;;;;;5038093;28;20032;-61
2023/04/03 09:38:09;;;;;;;3.47;1.92;;;19.70;53.50;;;;;;5032228;28;20116;-60
2023/04/03 09:40:38;;;;;;;4.63;2.30;;;19.80;53.10;;;;;;5034180;28;20035;-58
2023/04/03 09:43:26;;;;;;;5.78;2.78;;;19.90;53.90;;;;;;5031869;28;20033;-60
2023/04/03 09:45:53;;;;;;;4.13;2.50;;;20.00;53.70;;;;;;5033075;28;20040;-61
2023/04/03 09:48:23;;;;;;;4.20;2.15;;;20.10;53.50;;;;;;5029537;28;20044;-55
2023/04/03 09:51:02;;;;;;;5.20;3.25;;;20.10;53.40;;;;;;5029809;28;20057;-56
2023/04/03 09:53:35;;;;;;;5.32;2.80;;;20.10;53.40;;;;;;5032030;28;20029;-60
2023/04/03 09:56:25;;;;;;;6.20;2.67;;;20.20;53.50;;;;;;5036564;28;20045;-60
2023/04/03 09:58:59;;;;;;;4.72;2.83;;;20.20;53.50;;;;;;5013900;28;20120;-59
2023/04/03 10:01:29;;;;;;;5.78;2.78;;;20.10;53.60;;;;;;5014355;28;20029;-52
2023/04/03 10:04:13;;;;;;;4.28;2.95;;;20.10;53.80;;;;;;5024629;28;20144;-54
2023/04/03 10:06:40;;;;;;;3.83;2.42;;;20.00;53.80;;;;;;5031407;28;20570;-60
2023/04/03 10:09:15;;;;;;;4.78;2.53;;;20.00;54.00;;;;;;5034325;28;20564;-60
2023/04/03 10:12:06;;;;;;;5.95;2.95;;;19.90;54.10;;;;;;5035118;28;20052;-53
2023/04/03 10:14:35;;;;;;;4.18;2.05;;;19.90;54.30;;;;;;5031392;28;20433;-60
2023/04/03 10:17:28;;;;;;;3.55;2.53;;;19.80;54.40;;;;;;5034137;28;20025;-56
2023/04/03 10:19:59;;;;;;;4.72;2.38;;;19.80;54.50;;;;;;5029290;28;20546;-62
2023/04/03 10:23:04;;;;;;;4.05;2.40;;;19.70;54.60;;;;;;5029618;28;20036;-54
2023/04/03 10:25:39;;;;;;;5.10;2.45;;;19.70;54.70;;;;;;5033692;28;20400;-60
2023/04/03 10:28:35;;;;;;;3.40;2.25;;;19.60;54.80;;;;;;5025620;28;20029;-56
2023/04/03 10:31:25;;;;;;;4.72;2.10;;;19.60;55.50;;;;;;5021858;28;20113;-59
2023/04/03 10:34:18;;;;;;;4.68;2.00;;;19.60;55.00;;;;;;5014951;28;20254;-60
2023/04/03 10:37:04;;;;;;;4.68;2.20;;;19.60;55.10;;;;;;5030222;28;20373;-60
2023/04/03 10:39:35;;;;;;;3.88;2.20;;;19.50;55.00;;;;;;5023557;28;20025;-60
2023/04/03 10:42:14;;;;;;;3.42;1.85;;;19.50;55.00;;;;;;5040181;28;20029;-57
2023/04/03 10:44:57;;;;;;;3.15;2.00;;;19.40;55.10;;;;;;5028569;28;20037;-59
2023/04/03 10:47:44;;;;;;;4.50;2.10;;;19.40;55.20;;;;;;5021506;28;20891;-60
2023/04/03 10:50:21;;;;;;;5.30;2.35;;;19.40;55.30;;;;;;5032191;28;20100;-60
2023/04/03 10:52:57;;;;;;;2.65;1.80;;;19.40;55.30;;;;;;5031912;28;20045;-52
2023/04/03 10:55:42;;;;;;;3.95;2.03;;;19.40;55.30;;;;;;5032863;28;20098;-60
2023/04/03 10:58:37;;;;;;;3.08;1.70;;;19.30;55.30;;;;;;5024822;28;20029;-60
2023/04/03 11:01:13;;;;;;;2.90;1.48;;;19.30;55.40;;;;;;5029349;28;20036;-59
2023/04/03 11:03:41;;;;;;;;;;;19.30;55.50;;;;;;5033405;28;20392;-59
2023/04/03 11:06:10;;;;;;;2.45;1.75;;;19.30;55.60;;;;;;5033929;28;19995;-60
2023/04/03 11:08:56;;;;;;;3.75;1.70;;;19.30;55.70;;;;;;5031259;28;20100;-59
2023/04/03 11:11:27;;;;;;;3.40;1.50;;;19.20;55.60;;;;;;5033142;28;20033;-56
2023/04/03 11:14:16;;;;;;;3.50;1.85;;;19.20;55.50;;;;;;5027571;28;20033;-58
2023/04/03 11:17:08;;;;;;;3.25;1.60;;;19.20;55.40;;;;;;5007836;28;20103;-56
2023/04/03 11:19:44;;;;;;;2.60;1.30;;;19.10;55.50;;;;;;5028082;28;20044;-60
2023/04/03 11:22:24;;;;;;;4.03;1.55;;;19.10;55.50;;;;;;5033665;28;20381;-61
2023/04/03 11:25:24;;;;;;;3.30;1.52;;;19.10;55.70;;;;;;5038889;28;20033;-61
2023/04/03 11:27:56;;;;;;;5.00;1.35;;;19.10;56.00;;;;;;5035569;28;20477;-60
2023/04/03 11:30:29;;;;;;;3.65;1.73;;;19.10;56.20;;;;;;5028111;28;20039;-61
2023/04/03 11:33:15;;;;;;;4.10;1.52;;;19.10;56.40;;;;;;5032154;28;20029;-60
2023/04/03 11:35:46;;;;;;;5.65;1.70;;;19.10;56.50;;;;;;5032507;28;20441;-55
2023/04/03 11:38:22;;;;;;;3.67;1.52;;;19.00;56.60;;;;;;5036270;28;20032;-60
2023/04/03 11:40:49;;;;;;;3.95;1.33;;;19.00;56.70;;;;;;5039731;28;20067;-59
2023/04/03 11:43:25;;;;;;;4.38;1.27;;;19.00;56.80;;;;;;5035277;28;20029;-52
2023/04/03 11:46:05;;;;;;;3.15;1.30;;;19.00;57.00;;;;;;5033395;28;20099;-57
2023/04/03 11:48:31;;;;;;;2.95;1.00;;;19.00;57.00;;;;;;5034635;28;20290;-60
2023/04/03 11:51:03;;;;;;;2.70;1.40;;;19.00;57.10;;;;;;5032822;28;20037;-56
2023/04/03 11:53:37;;;;;;;2.58;0.95;;;19.00;57.20;;;;;;5032447;28;20134;-59
2023/04/03 11:56:27;;;;;;;4.22;1.17;;;19.00;57.10;;;;;;5034405;28;20147;-55
2023/04/03 11:59:21;;;;;;;2.45;1.10;;;19.00;57.00;;;;;;5038155;28;20496;-61
2023/04/03 12:01:52;;;;;;;3.38;1.67;;;19.10;56.90;;;;;;5031827;28;20053;-60
2023/04/03 12:04:20;;;;;;;5.60;1.30;;;19.20;56.60;;;;;;5036600;28;20377;-56
2023/04/03 12:06:46;;;;;;;2.65;1.02;;;19.30;56.20;;;;;;5035152;28;20047;-53
2023/04/03 12:09:34;;;;;;;3.58;1.70;;;19.50;56.00;;;;;;5037083;28;20388;-59
2023/04/03 12:12:21;;;;;;;1.98;1.02;;;19.70;55.60;;;;;;5031579;28;20043;-58
2023/04/03 12:14:47;;;;;;;2.03;1.25;;;19.80;55.20;;;;;;5031311;28;20051;-60
2023/04/03 12:17:23;;;;;;;3.13;1.10;;;20.00;54.90;;;;;;5034289;28;20033;-61
2023/04/03 12:19:49;;;;;;;1.60;0.90;;;20.10;54.70;;;;;;5028451;28;20037;-58
2023/04/03 12:22:16;;;;;;;2.95;1.00;;;20.20;54.50;;;;;;5018839;28;20083;-60
2023/04/03 12:24:45;;;;;;;3.88;1.20;;;20.20;54.30;;;;;;5017757;28;20574;-56
2023/04/03 12:27:25;;;;;;;3.10;1.63;;;20.30;54.10;;;;;;5009456;28;20186;-59
2023/04/03 12:30:03;;;;;;;2.30;1.17;;;20.40;53.90;;;;;;5027924;28;20111;-56
2023/04/03 12:32:48;;;;;;;3.55;1.20;;;20.40;53.80;;;;;;5035427;28;20029;-60
2023/04/03 12:35:36;;;;;;;3.70;1.23;;;20.50;53.80;;;;;;5035822;28;20032;-61
2023/04/03 12:38:20;;;;;;;2.22;0.90;;;20.50;53.70;;;;;;5038326;28;20119;-59
2023/04/03 12:41:03;;;;;;;2.92;1.08;;;20.50;53.90;;;;;;5032673;28;20033;-61
2023/04/03 12:43:42;;;;;;;2.45;0.98;;;20.40;54.00;;;;;;5032321;28;20501;-59
2023/04/03 12:46:07;;;;;;;2.28;0.85;;;20.40;54.10;;;;;;5033673;28;20033;-53
2023/04/03 12:48:45;;;;;;;2.95;0.80;;;20.30;54.30;;;;;;5030590;28;20484;-60
2023/04/03 12:51:34;;;;;;;2.90;0.98;;;20.30;54.30;;;;;;5037134;28;20502;-59
2023/04/03 12:54:04;;;;;;;1.88;1.02;;;20.20;54.40;;;;;;5034796;28;20061;-60
2023/04/03 12:56:32;;;;;;;1.30;0.80;;;20.20;54.70;;;;;;5022402;28;20052;-59
2023/04/03 12:59:16;;;;;;;1.00;0.90;;;20.10;54.90;;;;;;5034751;28;20057;-61